sensor_id;sensor_type;location;lat;lon;timestamp;P1;durP1;ratioP1;P2;durP2;ratioP2
31638;SDS011;18248;51.522;7.020;2024-01-07T00:00:01;32.53;;;18.98;;
31638;SDS011;18248;51.522;7.020;2024-01-07T00:03:00;30.67;;;16.95;;
31638;SDS011;18248;51.522;7.020;2024-01-07T00:05:59;25.55;;;15.35;;
31638;SDS011;18248;51.522;7.020;2024-01-07T00:08:57;31.73;;;17.35;;
31638;SDS011;18248;51.522;7.020;2024-01-07T00:11:56;28.00;;;16.45;;
31638;SDS011;18248;51.522;7.020;2024-01-07T00:14:54;29.55;;;16.00;;
31638;SDS011;18248;51.522;7.020;2024-01-07T00:17:53;28.25;;;16.40;;
31638;SDS011;18248;51.522;7.020;2024-01-07T00:20:51;23.83;;;13.88;;
31638;SDS011;18248;51.522;7.020;2024-01-07T00:23:50;28.80;;;16.10;;
31638;SDS011;18248;51.522;7.020;2024-01-07T00:26:49;24.25;;;14.15;;
31638;SDS011;18248;51.522;7.020;2024-01-07T00:29:47;25.23;;;14.52;;
31638;SDS011;18248;51.522;7.020;2024-01-07T00:32:46;28.52;;;16.80;;
31638;SDS011;18248;51.522;7.020;2024-01-07T00:35:44;26.80;;;15.15;;
31638;SDS011;18248;51.522;7.020;2024-01-07T00:38:43;26.80;;;16.48;;
31638;SDS011;18248;51.522;7.020;2024-01-07T00:41:41;27.65;;;15.93;;
31638;SDS011;18248;51.522;7.020;2024-01-07T00:44:40;30.00;;;15.93;;
31638;SDS011;18248;51.522;7.020;2024-01-07T00:47:38;28.88;;;16.27;;
31638;SDS011;18248;51.522;7.020;2024-01-07T00:50:37;24.77;;;14.25;;
31638;SDS011;18248;51.522;7.020;2024-01-07T00:53:35;22.85;;;14.20;;
31638;SDS011;18248;51.522;7.020;2024-01-07T00:56:34;22.15;;;12.93;;
31638;SDS011;18248;51.522;7.020;2024-01-07T00:59:32;23.95;;;13.43;;
31638;SDS011;18248;51.522;7.020;2024-01-07T01:02:31;23.33;;;13.65;;
31638;SDS011;18248;51.522;7.020;2024-01-07T01:05:30;25.23;;;14.13;;
31638;SDS011;18248;51.522;7.020;2024-01-07T01:08:28;20.83;;;13.10;;
31638;SDS011;18248;51.522;7.020;2024-01-07T01:11:27;24.33;;;13.73;;
31638;SDS011;18248;51.522;7.020;2024-01-07T01:14:25;29.52;;;16.52;;
31638;SDS011;18248;51.522;7.020;2024-01-07T01:17:24;37.78;;;20.08;;
31638;SDS011;18248;51.522;7.020;2024-01-07T01:20:23;37.63;;;20.38;;
31638;SDS011;18248;51.522;7.020;2024-01-07T01:23:21;36.22;;;19.13;;
31638;SDS011;18248;51.522;7.020;2024-01-07T01:26:20;34.83;;;18.63;;
31638;SDS011;18248;51.522;7.020;2024-01-07T01:29:18;40.95;;;22.02;;
31638;SDS011;18248;51.522;7.020;2024-01-07T01:32:17;37.40;;;20.27;;
31638;SDS011;18248;51.522;7.020;2024-01-07T01:35:16;36.92;;;19.33;;
31638;SDS011;18248;51.522;7.020;2024-01-07T01:38:14;39.50;;;20.15;;
31638;SDS011;18248;51.522;7.020;2024-01-07T01:41:13;34.88;;;18.55;;
31638;SDS011;18248;51.522;7.020;2024-01-07T01:44:11;35.72;;;18.42;;
31638;SDS011;18248;51.522;7.020;2024-01-07T01:47:10;36.95;;;19.73;;
31638;SDS011;18248;51.522;7.020;2024-01-07T01:50:09;35.90;;;20.60;;
31638;SDS011;18248;51.522;7.020;2024-01-07T01:53:09;39.88;;;21.48;;
31638;SDS011;18248;51.522;7.020;2024-01-07T01:56:08;36.03;;;19.33;;
31638;SDS011;18248;51.522;7.020;2024-01-07T01:59:06;35.40;;;19.48;;
31638;SDS011;18248;51.522;7.020;2024-01-07T02:02:05;36.90;;;19.20;;
31638;SDS011;18248;51.522;7.020;2024-01-07T02:05:04;34.30;;;18.50;;
31638;SDS011;18248;51.522;7.020;2024-01-07T02:08:03;36.05;;;18.70;;
31638;SDS011;18248;51.522;7.020;2024-01-07T02:11:15;32.10;;;16.88;;
31638;SDS011;18248;51.522;7.020;2024-01-07T02:14:20;34.63;;;18.23;;
31638;SDS011;18248;51.522;7.020;2024-01-07T02:17:18;31.45;;;18.95;;
31638;SDS011;18248;51.522;7.020;2024-01-07T02:20:17;33.40;;;18.33;;
31638;SDS011;18248;51.522;7.020;2024-01-07T02:23:16;33.20;;;18.83;;
31638;SDS011;18248;51.522;7.020;2024-01-07T02:26:14;29.40;;;17.42;;
31638;SDS011;18248;51.522;7.020;2024-01-07T02:29:13;33.85;;;19.70;;
31638;SDS011;18248;51.522;7.020;2024-01-07T02:32:12;36.25;;;19.88;;
31638;SDS011;18248;51.522;7.020;2024-01-07T02:35:11;34.92;;;20.02;;
31638;SDS011;18248;51.522;7.020;2024-01-07T02:38:09;31.17;;;17.95;;
31638;SDS011;18248;51.522;7.020;2024-01-07T02:41:08;34.75;;;19.40;;
31638;SDS011;18248;51.522;7.020;2024-01-07T02:44:06;35.55;;;20.23;;
31638;SDS011;18248;51.522;7.020;2024-01-07T02:47:05;33.22;;;18.88;;
31638;SDS011;18248;51.522;7.020;2024-01-07T02:50:04;31.02;;;17.90;;
31638;SDS011;18248;51.522;7.020;2024-01-07T02:53:04;32.95;;;19.75;;
31638;SDS011;18248;51.522;7.020;2024-01-07T02:56:02;29.75;;;17.63;;
31638;SDS011;18248;51.522;7.020;2024-01-07T02:59:01;27.48;;;15.57;;
31638;SDS011;18248;51.522;7.020;2024-01-07T03:02:00;27.70;;;17.08;;
31638;SDS011;18248;51.522;7.020;2024-01-07T03:04:58;29.13;;;17.35;;
31638;SDS011;18248;51.522;7.020;2024-01-07T03:07:58;23.25;;;14.00;;
31638;SDS011;18248;51.522;7.020;2024-01-07T03:10:58;29.42;;;16.70;;
31638;SDS011;18248;51.522;7.020;2024-01-07T03:13:56;25.40;;;15.35;;
31638;SDS011;18248;51.522;7.020;2024-01-07T03:16:55;26.35;;;14.80;;
31638;SDS011;18248;51.522;7.020;2024-01-07T03:19:53;23.15;;;13.98;;
31638;SDS011;18248;51.522;7.020;2024-01-07T03:22:52;26.77;;;16.70;;
31638;SDS011;18248;51.522;7.020;2024-01-07T03:25:51;30.15;;;17.58;;
31638;SDS011;18248;51.522;7.020;2024-01-07T03:28:50;28.10;;;17.20;;
31638;SDS011;18248;51.522;7.020;2024-01-07T03:31:48;27.77;;;16.30;;
31638;SDS011;18248;51.522;7.020;2024-01-07T03:34:47;28.58;;;16.95;;
31638;SDS011;18248;51.522;7.020;2024-01-07T03:37:45;29.08;;;18.00;;
31638;SDS011;18248;51.522;7.020;2024-01-07T03:40:44;30.00;;;17.98;;
31638;SDS011;18248;51.522;7.020;2024-01-07T03:43:42;25.67;;;14.70;;
31638;SDS011;18248;51.522;7.020;2024-01-07T03:46:41;25.98;;;15.85;;
31638;SDS011;18248;51.522;7.020;2024-01-07T03:49:39;24.83;;;15.73;;
31638;SDS011;18248;51.522;7.020;2024-01-07T03:52:38;23.20;;;15.60;;
31638;SDS011;18248;51.522;7.020;2024-01-07T03:55:36;26.23;;;16.40;;
31638;SDS011;18248;51.522;7.020;2024-01-07T03:58:35;29.02;;;17.30;;
31638;SDS011;18248;51.522;7.020;2024-01-07T04:01:33;25.73;;;16.02;;
31638;SDS011;18248;51.522;7.020;2024-01-07T04:04:32;27.65;;;16.80;;
31638;SDS011;18248;51.522;7.020;2024-01-07T04:07:30;25.75;;;16.23;;
31638;SDS011;18248;51.522;7.020;2024-01-07T04:10:29;24.08;;;15.18;;
31638;SDS011;18248;51.522;7.020;2024-01-07T04:13:27;23.77;;;15.00;;
31638;SDS011;18248;51.522;7.020;2024-01-07T04:16:26;22.58;;;14.05;;
31638;SDS011;18248;51.522;7.020;2024-01-07T04:19:24;25.55;;;14.40;;
31638;SDS011;18248;51.522;7.020;2024-01-07T04:22:23;23.95;;;14.35;;
31638;SDS011;18248;51.522;7.020;2024-01-07T04:25:22;21.48;;;13.70;;
31638;SDS011;18248;51.522;7.020;2024-01-07T04:28:20;23.98;;;13.63;;
31638;SDS011;18248;51.522;7.020;2024-01-07T04:31:19;26.25;;;15.80;;
31638;SDS011;18248;51.522;7.020;2024-01-07T04:34:17;22.48;;;12.95;;
31638;SDS011;18248;51.522;7.020;2024-01-07T04:37:16;23.85;;;13.48;;
31638;SDS011;18248;51.522;7.020;2024-01-07T04:40:14;28.70;;;15.80;;
31638;SDS011;18248;51.522;7.020;2024-01-07T04:43:13;26.33;;;14.95;;
31638;SDS011;18248;51.522;7.020;2024-01-07T04:46:11;30.38;;;16.77;;
31638;SDS011;18248;51.522;7.020;2024-01-07T04:49:10;26.30;;;14.38;;
31638;SDS011;18248;51.522;7.020;2024-01-07T04:52:09;25.08;;;13.73;;
31638;SDS011;18248;51.522;7.020;2024-01-07T04:55:08;24.80;;;13.63;;
31638;SDS011;18248;51.522;7.020;2024-01-07T04:58:07;25.02;;;14.77;;
31638;SDS011;18248;51.522;7.020;2024-01-07T05:01:06;21.50;;;12.70;;
31638;SDS011;18248;51.522;7.020;2024-01-07T05:04:04;22.70;;;13.75;;
31638;SDS011;18248;51.522;7.020;2024-01-07T05:07:03;28.60;;;15.15;;
31638;SDS011;18248;51.522;7.020;2024-01-07T05:10:02;27.05;;;15.32;;
31638;SDS011;18248;51.522;7.020;2024-01-07T05:13:01;26.58;;;15.63;;
31638;SDS011;18248;51.522;7.020;2024-01-07T05:16:04;26.75;;;15.77;;
31638;SDS011;18248;51.522;7.020;2024-01-07T05:19:03;28.17;;;14.95;;
31638;SDS011;18248;51.522;7.020;2024-01-07T05:22:01;21.10;;;12.48;;
31638;SDS011;18248;51.522;7.020;2024-01-07T05:25:00;27.90;;;16.27;;
31638;SDS011;18248;51.522;7.020;2024-01-07T05:27:59;27.88;;;15.60;;
31638;SDS011;18248;51.522;7.020;2024-01-07T05:30:57;28.23;;;15.70;;
31638;SDS011;18248;51.522;7.020;2024-01-07T05:33:56;25.33;;;14.43;;
31638;SDS011;18248;51.522;7.020;2024-01-07T05:36:54;27.92;;;17.00;;
31638;SDS011;18248;51.522;7.020;2024-01-07T05:39:53;27.63;;;16.15;;
31638;SDS011;18248;51.522;7.020;2024-01-07T05:42:51;27.00;;;16.25;;
31638;SDS011;18248;51.522;7.020;2024-01-07T05:45:50;30.23;;;17.20;;
31638;SDS011;18248;51.522;7.020;2024-01-07T05:48:48;28.27;;;16.50;;
31638;SDS011;18248;51.522;7.020;2024-01-07T05:51:47;29.98;;;16.15;;
31638;SDS011;18248;51.522;7.020;2024-01-07T05:54:46;27.60;;;16.00;;
31638;SDS011;18248;51.522;7.020;2024-01-07T05:57:44;25.40;;;15.45;;
31638;SDS011;18248;51.522;7.020;2024-01-07T06:00:43;30.23;;;17.27;;
31638;SDS011;18248;51.522;7.020;2024-01-07T06:03:41;31.30;;;17.70;;
31638;SDS011;18248;51.522;7.020;2024-01-07T06:06:40;29.75;;;16.92;;
31638;SDS011;18248;51.522;7.020;2024-01-07T06:09:38;29.75;;;17.50;;
31638;SDS011;18248;51.522;7.020;2024-01-07T06:12:37;33.47;;;17.70;;
31638;SDS011;18248;51.522;7.020;2024-01-07T06:15:36;29.13;;;17.40;;
31638;SDS011;18248;51.522;7.020;2024-01-07T06:18:34;26.45;;;15.38;;
31638;SDS011;18248;51.522;7.020;2024-01-07T06:21:33;29.10;;;17.42;;
31638;SDS011;18248;51.522;7.020;2024-01-07T06:24:31;31.85;;;17.92;;
31638;SDS011;18248;51.522;7.020;2024-01-07T06:27:30;28.77;;;17.05;;
31638;SDS011;18248;51.522;7.020;2024-01-07T06:30:28;29.85;;;16.23;;
31638;SDS011;18248;51.522;7.020;2024-01-07T06:33:27;29.35;;;17.23;;
31638;SDS011;18248;51.522;7.020;2024-01-07T06:36:25;28.17;;;16.67;;
31638;SDS011;18248;51.522;7.020;2024-01-07T06:39:24;27.92;;;16.15;;
31638;SDS011;18248;51.522;7.020;2024-01-07T06:42:24;24.83;;;14.82;;
31638;SDS011;18248;51.522;7.020;2024-01-07T06:45:23;28.25;;;16.35;;
31638;SDS011;18248;51.522;7.020;2024-01-07T06:48:21;27.95;;;16.23;;
31638;SDS011;18248;51.522;7.020;2024-01-07T06:51:20;24.17;;;15.45;;
31638;SDS011;18248;51.522;7.020;2024-01-07T06:54:19;25.98;;;14.77;;
31638;SDS011;18248;51.522;7.020;2024-01-07T06:57:17;26.17;;;15.15;;
31638;SDS011;18248;51.522;7.020;2024-01-07T07:00:16;26.00;;;16.10;;
31638;SDS011;18248;51.522;7.020;2024-01-07T07:03:15;24.85;;;15.18;;
31638;SDS011;18248;51.522;7.020;2024-01-07T07:06:14;26.13;;;15.18;;
31638;SDS011;18248;51.522;7.020;2024-01-07T07:09:12;25.13;;;15.02;;
31638;SDS011;18248;51.522;7.020;2024-01-07T07:12:13;22.38;;;13.13;;
31638;SDS011;18248;51.522;7.020;2024-01-07T07:15:11;25.05;;;14.40;;
31638;SDS011;18248;51.522;7.020;2024-01-07T07:18:10;23.67;;;11.98;;
31638;SDS011;18248;51.522;7.020;2024-01-07T07:21:08;23.65;;;14.13;;
31638;SDS011;18248;51.522;7.020;2024-01-07T07:24:07;21.50;;;13.02;;
31638;SDS011;18248;51.522;7.020;2024-01-07T07:27:05;24.50;;;14.43;;
31638;SDS011;18248;51.522;7.020;2024-01-07T07:30:04;23.48;;;14.13;;
31638;SDS011;18248;51.522;7.020;2024-01-07T07:33:04;24.20;;;14.00;;
31638;SDS011;18248;51.522;7.020;2024-01-07T07:36:03;24.95;;;13.93;;
31638;SDS011;18248;51.522;7.020;2024-01-07T07:39:01;23.80;;;14.02;;
31638;SDS011;18248;51.522;7.020;2024-01-07T07:42:00;21.13;;;13.05;;
31638;SDS011;18248;51.522;7.020;2024-01-07T07:44:59;23.63;;;13.90;;
31638;SDS011;18248;51.522;7.020;2024-01-07T07:47:57;26.35;;;14.45;;
31638;SDS011;18248;51.522;7.020;2024-01-07T07:50:56;23.55;;;13.32;;
31638;SDS011;18248;51.522;7.020;2024-01-07T07:53:54;21.23;;;12.05;;
31638;SDS011;18248;51.522;7.020;2024-01-07T07:56:53;24.45;;;14.23;;
31638;SDS011;18248;51.522;7.020;2024-01-07T07:59:51;28.20;;;14.93;;
31638;SDS011;18248;51.522;7.020;2024-01-07T08:02:51;22.90;;;14.13;;
31638;SDS011;18248;51.522;7.020;2024-01-07T08:05:49;26.90;;;14.75;;
31638;SDS011;18248;51.522;7.020;2024-01-07T08:08:48;31.42;;;16.33;;
31638;SDS011;18248;51.522;7.020;2024-01-07T08:11:47;25.48;;;14.05;;
31638;SDS011;18248;51.522;7.020;2024-01-07T08:14:45;22.80;;;12.57;;
31638;SDS011;18248;51.522;7.020;2024-01-07T08:17:44;25.80;;;14.73;;
31638;SDS011;18248;51.522;7.020;2024-01-07T08:20:42;27.73;;;15.40;;
31638;SDS011;18248;51.522;7.020;2024-01-07T08:23:41;26.77;;;14.68;;
31638;SDS011;18248;51.522;7.020;2024-01-07T08:26:40;25.67;;;13.02;;
31638;SDS011;18248;51.522;7.020;2024-01-07T08:29:38;26.42;;;14.35;;
31638;SDS011;18248;51.522;7.020;2024-01-07T08:32:37;23.25;;;12.82;;
31638;SDS011;18248;51.522;7.020;2024-01-07T08:35:35;23.98;;;13.63;;
31638;SDS011;18248;51.522;7.020;2024-01-07T08:38:34;22.13;;;12.23;;
31638;SDS011;18248;51.522;7.020;2024-01-07T08:41:33;24.27;;;12.57;;
31638;SDS011;18248;51.522;7.020;2024-01-07T08:44:32;23.67;;;13.82;;
31638;SDS011;18248;51.522;7.020;2024-01-07T08:47:30;19.70;;;12.02;;
31638;SDS011;18248;51.522;7.020;2024-01-07T08:50:29;22.75;;;12.85;;
31638;SDS011;18248;51.522;7.020;2024-01-07T08:53:28;23.77;;;13.32;;
31638;SDS011;18248;51.522;7.020;2024-01-07T08:56:26;22.73;;;13.00;;
31638;SDS011;18248;51.522;7.020;2024-01-07T08:59:25;20.70;;;12.25;;
31638;SDS011;18248;51.522;7.020;2024-01-07T09:02:23;19.60;;;11.35;;
31638;SDS011;18248;51.522;7.020;2024-01-07T09:05:23;19.27;;;11.25;;
31638;SDS011;18248;51.522;7.020;2024-01-07T09:08:24;23.08;;;11.45;;
31638;SDS011;18248;51.522;7.020;2024-01-07T09:11:23;19.80;;;10.43;;
31638;SDS011;18248;51.522;7.020;2024-01-07T09:14:22;17.85;;;10.30;;
31638;SDS011;18248;51.522;7.020;2024-01-07T09:17:20;17.73;;;10.73;;
31638;SDS011;18248;51.522;7.020;2024-01-07T09:20:20;20.02;;;11.30;;
31638;SDS011;18248;51.522;7.020;2024-01-07T09:23:18;20.15;;;10.45;;
31638;SDS011;18248;51.522;7.020;2024-01-07T09:26:17;17.25;;;10.20;;
31638;SDS011;18248;51.522;7.020;2024-01-07T09:29:16;15.38;;;10.07;;
31638;SDS011;18248;51.522;7.020;2024-01-07T09:32:14;17.80;;;10.13;;
31638;SDS011;18248;51.522;7.020;2024-01-07T09:35:13;16.95;;;10.18;;
31638;SDS011;18248;51.522;7.020;2024-01-07T09:38:11;17.30;;;9.73;;
31638;SDS011;18248;51.522;7.020;2024-01-07T09:41:10;16.80;;;9.75;;
31638;SDS011;18248;51.522;7.020;2024-01-07T09:44:08;18.63;;;9.63;;
31638;SDS011;18248;51.522;7.020;2024-01-07T09:47:07;18.30;;;10.15;;
31638;SDS011;18248;51.522;7.020;2024-01-07T09:50:09;16.85;;;10.10;;
31638;SDS011;18248;51.522;7.020;2024-01-07T09:53:11;16.42;;;9.82;;
31638;SDS011;18248;51.522;7.020;2024-01-07T09:59:18;17.83;;;9.85;;
31638;SDS011;18248;51.522;7.020;2024-01-07T10:02:17;18.85;;;9.23;;
31638;SDS011;18248;51.522;7.020;2024-01-07T10:05:16;17.70;;;9.05;;
31638;SDS011;18248;51.522;7.020;2024-01-07T10:08:15;18.25;;;8.65;;
31638;SDS011;18248;51.522;7.020;2024-01-07T10:11:14;16.23;;;8.82;;
31638;SDS011;18248;51.522;7.020;2024-01-07T10:14:13;18.45;;;9.30;;
31638;SDS011;18248;51.522;7.020;2024-01-07T10:17:15;14.90;;;8.70;;
31638;SDS011;18248;51.522;7.020;2024-01-07T10:20:16;42.13;;;9.88;;
31638;SDS011;18248;51.522;7.020;2024-01-07T10:23:18;16.55;;;7.70;;
31638;SDS011;18248;51.522;7.020;2024-01-07T10:26:17;17.55;;;8.35;;
31638;SDS011;18248;51.522;7.020;2024-01-07T10:29:17;13.25;;;7.55;;
31638;SDS011;18248;51.522;7.020;2024-01-07T10:32:17;13.02;;;7.20;;
31638;SDS011;18248;51.522;7.020;2024-01-07T10:35:17;12.30;;;6.78;;
31638;SDS011;18248;51.522;7.020;2024-01-07T10:38:19;16.15;;;7.47;;
31638;SDS011;18248;51.522;7.020;2024-01-07T10:41:19;17.98;;;8.13;;
31638;SDS011;18248;51.522;7.020;2024-01-07T10:44:18;14.05;;;8.05;;
31638;SDS011;18248;51.522;7.020;2024-01-07T10:47:17;14.23;;;6.85;;
31638;SDS011;18248;51.522;7.020;2024-01-07T10:50:18;11.30;;;6.88;;
31638;SDS011;18248;51.522;7.020;2024-01-07T10:53:18;13.18;;;6.72;;
31638;SDS011;18248;51.522;7.020;2024-01-07T10:56:19;10.27;;;5.88;;
31638;SDS011;18248;51.522;7.020;2024-01-07T10:59:22;10.90;;;5.90;;
31638;SDS011;18248;51.522;7.020;2024-01-07T11:02:21;13.88;;;5.82;;
31638;SDS011;18248;51.522;7.020;2024-01-07T11:05:31;9.52;;;5.45;;
31638;SDS011;18248;51.522;7.020;2024-01-07T11:11:39;11.20;;;5.43;;
31638;SDS011;18248;51.522;7.020;2024-01-07T11:14:41;10.93;;;6.00;;
31638;SDS011;18248;51.522;7.020;2024-01-07T11:17:50;9.38;;;5.68;;
31638;SDS011;18248;51.522;7.020;2024-01-07T11:20:49;9.40;;;5.28;;
31638;SDS011;18248;51.522;7.020;2024-01-07T11:23:48;8.73;;;4.95;;
31638;SDS011;18248;51.522;7.020;2024-01-07T11:26:47;6.70;;;4.47;;
31638;SDS011;18248;51.522;7.020;2024-01-07T11:29:52;8.77;;;4.40;;
31638;SDS011;18248;51.522;7.020;2024-01-07T11:32:58;7.55;;;4.32;;
31638;SDS011;18248;51.522;7.020;2024-01-07T11:35:59;6.88;;;4.10;;
31638;SDS011;18248;51.522;7.020;2024-01-07T11:38:59;13.15;;;5.40;;
31638;SDS011;18248;51.522;7.020;2024-01-07T11:42:00;9.63;;;5.20;;
31638;SDS011;18248;51.522;7.020;2024-01-07T11:45:01;6.55;;;4.18;;
31638;SDS011;18248;51.522;7.020;2024-01-07T11:48:00;10.25;;;5.05;;
31638;SDS011;18248;51.522;7.020;2024-01-07T11:50:58;8.65;;;3.90;;
31638;SDS011;18248;51.522;7.020;2024-01-07T11:53:58;9.68;;;4.40;;
31638;SDS011;18248;51.522;7.020;2024-01-07T11:56:57;8.93;;;4.47;;
31638;SDS011;18248;51.522;7.020;2024-01-07T11:59:55;9.43;;;3.95;;
31638;SDS011;18248;51.522;7.020;2024-01-07T12:02:54;7.47;;;3.75;;
31638;SDS011;18248;51.522;7.020;2024-01-07T12:05:52;9.07;;;4.10;;
31638;SDS011;18248;51.522;7.020;2024-01-07T12:08:51;9.13;;;3.72;;
31638;SDS011;18248;51.522;7.020;2024-01-07T12:11:50;6.00;;;3.38;;
31638;SDS011;18248;51.522;7.020;2024-01-07T12:14:49;7.68;;;3.83;;
31638;SDS011;18248;51.522;7.020;2024-01-07T12:17:55;9.15;;;4.45;;
31638;SDS011;18248;51.522;7.020;2024-01-07T12:20:58;7.82;;;3.53;;
31638;SDS011;18248;51.522;7.020;2024-01-07T12:23:57;7.97;;;3.63;;
31638;SDS011;18248;51.522;7.020;2024-01-07T12:26:56;6.82;;;3.55;;
31638;SDS011;18248;51.522;7.020;2024-01-07T12:29:55;6.85;;;3.47;;
31638;SDS011;18248;51.522;7.020;2024-01-07T12:32:55;8.68;;;3.47;;
31638;SDS011;18248;51.522;7.020;2024-01-07T12:35:53;8.10;;;4.38;;
31638;SDS011;18248;51.522;7.020;2024-01-07T12:38:53;9.32;;;3.80;;
31638;SDS011;18248;51.522;7.020;2024-01-07T12:41:54;6.43;;;3.50;;
31638;SDS011;18248;51.522;7.020;2024-01-07T12:44:52;10.57;;;4.72;;
31638;SDS011;18248;51.522;7.020;2024-01-07T12:47:51;8.18;;;3.70;;
31638;SDS011;18248;51.522;7.020;2024-01-07T12:50:52;11.32;;;5.35;;
31638;SDS011;18248;51.522;7.020;2024-01-07T12:53:51;9.52;;;5.40;;
31638;SDS011;18248;51.522;7.020;2024-01-07T12:56:49;7.50;;;4.40;;
31638;SDS011;18248;51.522;7.020;2024-01-07T12:59:48;13.52;;;5.30;;
31638;SDS011;18248;51.522;7.020;2024-01-07T13:02:46;8.82;;;3.92;;
31638;SDS011;18248;51.522;7.020;2024-01-07T13:05:46;7.57;;;4.13;;
31638;SDS011;18248;51.522;7.020;2024-01-07T13:08:48;6.70;;;3.85;;
31638;SDS011;18248;51.522;7.020;2024-01-07T13:11:46;6.68;;;3.58;;
31638;SDS011;18248;51.522;7.020;2024-01-07T13:14:45;7.63;;;3.85;;
31638;SDS011;18248;51.522;7.020;2024-01-07T13:17:45;6.68;;;3.30;;
31638;SDS011;18248;51.522;7.020;2024-01-07T13:20:43;6.13;;;3.63;;
31638;SDS011;18248;51.522;7.020;2024-01-07T13:23:42;7.72;;;3.47;;
31638;SDS011;18248;51.522;7.020;2024-01-07T13:26:42;5.78;;;3.55;;
31638;SDS011;18248;51.522;7.020;2024-01-07T13:29:40;6.45;;;3.28;;
31638;SDS011;18248;51.522;7.020;2024-01-07T13:32:39;6.18;;;3.38;;
31638;SDS011;18248;51.522;7.020;2024-01-07T13:35:37;6.35;;;3.72;;
31638;SDS011;18248;51.522;7.020;2024-01-07T13:38:36;7.32;;;3.38;;
31638;SDS011;18248;51.522;7.020;2024-01-07T13:41:36;7.60;;;2.85;;
31638;SDS011;18248;51.522;7.020;2024-01-07T13:44:35;6.15;;;2.97;;
31638;SDS011;18248;51.522;7.020;2024-01-07T13:47:33;9.32;;;3.13;;
31638;SDS011;18248;51.522;7.020;2024-01-07T13:50:33;5.18;;;2.50;;
31638;SDS011;18248;51.522;7.020;2024-01-07T13:53:32;4.47;;;2.80;;
31638;SDS011;18248;51.522;7.020;2024-01-07T13:56:30;8.65;;;4.53;;
31638;SDS011;18248;51.522;7.020;2024-01-07T13:59:29;7.28;;;3.22;;
31638;SDS011;18248;51.522;7.020;2024-01-07T14:02:27;6.20;;;2.92;;
31638;SDS011;18248;51.522;7.020;2024-01-07T14:05:26;6.05;;;2.70;;
31638;SDS011;18248;51.522;7.020;2024-01-07T14:08:24;6.20;;;2.78;;
31638;SDS011;18248;51.522;7.020;2024-01-07T14:11:23;6.78;;;2.50;;
31638;SDS011;18248;51.522;7.020;2024-01-07T14:14:21;6.32;;;2.97;;
31638;SDS011;18248;51.522;7.020;2024-01-07T14:17:21;5.45;;;3.15;;
31638;SDS011;18248;51.522;7.020;2024-01-07T14:20:20;8.77;;;2.70;;
31638;SDS011;18248;51.522;7.020;2024-01-07T14:23:19;4.43;;;2.55;;
31638;SDS011;18248;51.522;7.020;2024-01-07T14:26:18;5.18;;;2.53;;
31638;SDS011;18248;51.522;7.020;2024-01-07T14:29:21;4.38;;;2.33;;
31638;SDS011;18248;51.522;7.020;2024-01-07T14:32:19;11.05;;;3.28;;
31638;SDS011;18248;51.522;7.020;2024-01-07T14:35:17;7.88;;;3.28;;
31638;SDS011;18248;51.522;7.020;2024-01-07T14:38:16;4.22;;;2.78;;
31638;SDS011;18248;51.522;7.020;2024-01-07T14:41:14;5.45;;;2.70;;
31638;SDS011;18248;51.522;7.020;2024-01-07T14:44:13;4.47;;;2.45;;
31638;SDS011;18248;51.522;7.020;2024-01-07T14:47:12;9.15;;;3.88;;
31638;SDS011;18248;51.522;7.020;2024-01-07T14:50:12;5.82;;;3.25;;
31638;SDS011;18248;51.522;7.020;2024-01-07T14:53:11;6.70;;;2.95;;
31638;SDS011;18248;51.522;7.020;2024-01-07T14:56:09;8.27;;;2.42;;
31638;SDS011;18248;51.522;7.020;2024-01-07T14:59:08;3.70;;;2.35;;
31638;SDS011;18248;51.522;7.020;2024-01-07T15:02:06;9.23;;;2.58;;
31638;SDS011;18248;51.522;7.020;2024-01-07T15:05:05;5.85;;;2.40;;
31638;SDS011;18248;51.522;7.020;2024-01-07T15:08:04;7.32;;;2.33;;
31638;SDS011;18248;51.522;7.020;2024-01-07T15:11:03;6.15;;;2.17;;
31638;SDS011;18248;51.522;7.020;2024-01-07T15:14:02;8.23;;;2.38;;
31638;SDS011;18248;51.522;7.020;2024-01-07T15:17:04;5.40;;;2.90;;
31638;SDS011;18248;51.522;7.020;2024-01-07T15:20:03;3.90;;;2.63;;
31638;SDS011;18248;51.522;7.020;2024-01-07T15:23:02;5.22;;;2.58;;
31638;SDS011;18248;51.522;7.020;2024-01-07T15:26:00;4.38;;;2.60;;
31638;SDS011;18248;51.522;7.020;2024-01-07T15:28:59;17.83;;;6.78;;
31638;SDS011;18248;51.522;7.020;2024-01-07T15:31:58;15.27;;;5.80;;
31638;SDS011;18248;51.522;7.020;2024-01-07T15:34:56;9.45;;;3.50;;
31638;SDS011;18248;51.522;7.020;2024-01-07T15:37:55;3.83;;;1.98;;
31638;SDS011;18248;51.522;7.020;2024-01-07T15:40:55;5.13;;;2.70;;
31638;SDS011;18248;51.522;7.020;2024-01-07T15:43:54;4.38;;;2.55;;
31638;SDS011;18248;51.522;7.020;2024-01-07T15:46:52;6.82;;;2.45;;
31638;SDS011;18248;51.522;7.020;2024-01-07T15:49:51;4.70;;;2.53;;
31638;SDS011;18248;51.522;7.020;2024-01-07T15:52:49;5.38;;;2.80;;
31638;SDS011;18248;51.522;7.020;2024-01-07T15:55:48;4.60;;;2.53;;
31638;SDS011;18248;51.522;7.020;2024-01-07T15:58:46;6.22;;;2.55;;
31638;SDS011;18248;51.522;7.020;2024-01-07T16:01:46;3.83;;;2.30;;
31638;SDS011;18248;51.522;7.020;2024-01-07T16:04:45;3.90;;;2.38;;
31638;SDS011;18248;51.522;7.020;2024-01-07T16:07:44;4.15;;;2.30;;
31638;SDS011;18248;51.522;7.020;2024-01-07T16:10:43;6.95;;;2.42;;
31638;SDS011;18248;51.522;7.020;2024-01-07T16:13:42;7.43;;;3.17;;
31638;SDS011;18248;51.522;7.020;2024-01-07T16:16:40;3.95;;;2.50;;
31638;SDS011;18248;51.522;7.020;2024-01-07T16:19:39;7.43;;;3.15;;
31638;SDS011;18248;51.522;7.020;2024-01-07T16:22:38;11.52;;;5.68;;
31638;SDS011;18248;51.522;7.020;2024-01-07T16:25:37;16.75;;;7.70;;
31638;SDS011;18248;51.522;7.020;2024-01-07T16:28:35;7.45;;;3.95;;
31638;SDS011;18248;51.522;7.020;2024-01-07T16:31:34;7.13;;;4.45;;
31638;SDS011;18248;51.522;7.020;2024-01-07T16:34:33;6.38;;;3.40;;
31638;SDS011;18248;51.522;7.020;2024-01-07T16:37:32;6.13;;;2.83;;
31638;SDS011;18248;51.522;7.020;2024-01-07T16:40:30;7.38;;;3.00;;
31638;SDS011;18248;51.522;7.020;2024-01-07T16:43:29;8.18;;;3.33;;
31638;SDS011;18248;51.522;7.020;2024-01-07T16:46:29;6.53;;;3.63;;
31638;SDS011;18248;51.522;7.020;2024-01-07T16:49:28;5.95;;;3.42;;
31638;SDS011;18248;51.522;7.020;2024-01-07T16:52:26;7.78;;;3.75;;
31638;SDS011;18248;51.522;7.020;2024-01-07T16:55:25;5.57;;;3.60;;
31638;SDS011;18248;51.522;7.020;2024-01-07T16:58:23;5.93;;;3.10;;
31638;SDS011;18248;51.522;7.020;2024-01-07T17:01:22;6.00;;;3.15;;
31638;SDS011;18248;51.522;7.020;2024-01-07T17:04:20;6.18;;;3.55;;
31638;SDS011;18248;51.522;7.020;2024-01-07T17:07:19;7.93;;;3.95;;
31638;SDS011;18248;51.522;7.020;2024-01-07T17:10:18;12.00;;;3.63;;
31638;SDS011;18248;51.522;7.020;2024-01-07T17:13:16;8.02;;;3.55;;
31638;SDS011;18248;51.522;7.020;2024-01-07T17:16:15;7.43;;;3.38;;
31638;SDS011;18248;51.522;7.020;2024-01-07T17:19:13;6.88;;;3.00;;
31638;SDS011;18248;51.522;7.020;2024-01-07T17:22:12;5.25;;;3.05;;
31638;SDS011;18248;51.522;7.020;2024-01-07T17:25:10;4.40;;;2.65;;
31638;SDS011;18248;51.522;7.020;2024-01-07T17:28:09;5.95;;;3.72;;
31638;SDS011;18248;51.522;7.020;2024-01-07T17:31:07;5.20;;;3.45;;
31638;SDS011;18248;51.522;7.020;2024-01-07T17:34:06;7.95;;;3.47;;
31638;SDS011;18248;51.522;7.020;2024-01-07T17:37:05;6.80;;;3.45;;
31638;SDS011;18248;51.522;7.020;2024-01-07T17:40:03;7.68;;;3.30;;
31638;SDS011;18248;51.522;7.020;2024-01-07T17:43:02;14.65;;;5.72;;